Terminal Aerodrome Forecast
Issued by NWS

Home | Current Version | Previous Version | Text Only | Print | Product List | Glossary Off
Versions: 1 2 3 4 5 6 7 8 9 10 11 12 13 14 15 16 17 18

028
FTUS43 KABR 181720
TAFMBG
TAF
KMBG 181720Z 1818/1918 34005KT P6SM OVC009
     FM182300 01015KT P6SM BKN020
     FM190000 01015KT P6SM BKN015
     FM191000 02016KT P6SM OVC035=

USA.gov is the U.S. government's official web portal to all federal, state and local government web resources and services.